sensor_id;sensor_type;location;lat;lon;timestamp;pressure;altitude;pressure_sealevel;temperature;humidity
74075;BME280;62428;51.412;5.432;2023-11-22T00:01:04;102567.25;;;4.41;100.00
74075;BME280;62428;51.412;5.432;2023-11-22T00:03:30;102573.81;;;4.39;100.00
74075;BME280;62428;51.412;5.432;2023-11-22T00:05:56;102564.19;;;4.38;100.00
74075;BME280;62428;51.412;5.432;2023-11-22T00:08:21;102551.31;;;4.35;100.00
74075;BME280;62428;51.412;5.432;2023-11-22T00:10:46;102549.66;;;4.34;100.00
74075;BME280;62428;51.412;5.432;2023-11-22T00:13:12;102550.69;;;4.33;100.00
74075;BME280;62428;51.412;5.432;2023-11-22T00:15:37;102550.47;;;4.34;100.00
74075;BME280;62428;51.412;5.432;2023-11-22T00:18:03;102543.53;;;4.33;100.00
74075;BME280;62428;51.412;5.432;2023-11-22T00:20:31;102543.53;;;4.33;100.00
74075;BME280;62428;51.412;5.432;2023-11-22T00:22:58;102544.34;;;4.34;100.00
74075;BME280;62428;51.412;5.432;2023-11-22T00:25:24;102545.97;;;4.35;100.00
74075;BME280;62428;51.412;5.432;2023-11-22T00:27:50;102548.63;;;4.35;100.00
74075;BME280;62428;51.412;5.432;2023-11-22T00:30:15;102547.81;;;4.34;100.00
74075;BME280;62428;51.412;5.432;2023-11-22T00:32:40;102553.97;;;4.35;100.00
74075;BME280;62428;51.412;5.432;2023-11-22T00:35:07;102556.63;;;4.35;100.00
74075;BME280;62428;51.412;5.432;2023-11-22T00:37:33;102561.34;;;4.33;100.00
74075;BME280;62428;51.412;5.432;2023-11-22T00:40:03;102562.97;;;4.34;100.00
74075;BME280;62428;51.412;5.432;2023-11-22T00:42:36;102574.66;;;4.33;100.00
74075;BME280;62428;51.412;5.432;2023-11-22T00:45:03;102577.31;;;4.33;100.00
74075;BME280;62428;51.412;5.432;2023-11-22T00:47:34;102578.31;;;4.32;100.00
74075;BME280;62428;51.412;5.432;2023-11-22T00:49:59;102583.84;;;4.30;100.00
74075;BME280;62428;51.412;5.432;2023-11-22T00:52:25;102578.13;;;4.27;100.00
74075;BME280;62428;51.412;5.432;2023-11-22T00:54:50;102572.38;;;4.23;100.00
74075;BME280;62428;51.412;5.432;2023-11-22T00:57:15;102572.59;;;4.21;100.00
74075;BME280;62428;51.412;5.432;2023-11-22T00:59:42;102585.47;;;4.18;100.00
74075;BME280;62428;51.412;5.432;2023-11-22T01:02:07;102584.88;;;4.16;100.00
74075;BME280;62428;51.412;5.432;2023-11-22T01:04:34;102588.16;;;4.11;100.00
74075;BME280;62428;51.412;5.432;2023-11-22T01:07:01;102591.84;;;4.10;100.00
74075;BME280;62428;51.412;5.432;2023-11-22T01:09:26;102601.25;;;4.06;100.00
74075;BME280;62428;51.412;5.432;2023-11-22T01:11:54;102599.00;;;4.03;100.00
74075;BME280;62428;51.412;5.432;2023-11-22T01:14:19;102597.56;;;4.00;100.00
74075;BME280;62428;51.412;5.432;2023-11-22T01:16:44;102605.34;;;3.95;100.00
74075;BME280;62428;51.412;5.432;2023-11-22T01:19:10;102614.75;;;3.91;100.00
74075;BME280;62428;51.412;5.432;2023-11-22T01:21:36;102616.81;;;3.89;100.00
74075;BME280;62428;51.412;5.432;2023-11-22T01:24:02;102620.88;;;3.85;100.00
74075;BME280;62428;51.412;5.432;2023-11-22T01:26:27;102617.59;;;3.83;100.00
74075;BME280;62428;51.412;5.432;2023-11-22T01:28:52;102619.44;;;3.82;100.00
74075;BME280;62428;51.412;5.432;2023-11-22T01:31:18;102617.19;;;3.79;100.00
74075;BME280;62428;51.412;5.432;2023-11-22T01:33:46;102625.38;;;3.78;100.00
74075;BME280;62428;51.412;5.432;2023-11-22T01:36:12;102616.78;;;3.76;100.00
74075;BME280;62428;51.412;5.432;2023-11-22T01:38:37;102625.16;;;3.73;100.00
74075;BME280;62428;51.412;5.432;2023-11-22T01:41:04;102646.03;;;3.69;100.00
74075;BME280;62428;51.412;5.432;2023-11-22T01:43:30;102649.06;;;3.66;100.00
74075;BME280;62428;51.412;5.432;2023-11-22T01:45:56;102651.13;;;3.64;100.00
74075;BME280;62428;51.412;5.432;2023-11-22T01:48:22;102662.13;;;3.61;100.00
74075;BME280;62428;51.412;5.432;2023-11-22T01:50:48;102669.69;;;3.57;100.00
74075;BME280;62428;51.412;5.432;2023-11-22T01:53:14;102677.06;;;3.55;100.00
74075;BME280;62428;51.412;5.432;2023-11-22T01:55:42;102673.97;;;3.52;100.00
74075;BME280;62428;51.412;5.432;2023-11-22T01:58:08;102674.16;;;3.50;100.00
74075;BME280;62428;51.412;5.432;2023-11-22T02:00:45;102680.53;;;3.49;100.00
74075;BME280;62428;51.412;5.432;2023-11-22T02:03:11;102675.41;;;3.47;100.00
74075;BME280;62428;51.412;5.432;2023-11-22T02:05:40;102677.44;;;3.45;100.00
74075;BME280;62428;51.412;5.432;2023-11-22T02:08:07;102678.44;;;3.44;100.00
74075;BME280;62428;51.412;5.432;2023-11-22T02:10:33;102670.47;;;3.44;100.00
74075;BME280;62428;51.412;5.432;2023-11-22T02:12:58;102661.50;;;3.45;100.00
74075;BME280;62428;51.412;5.432;2023-11-22T02:15:24;102665.78;;;3.46;100.00
74075;BME280;62428;51.412;5.432;2023-11-22T02:17:49;102653.31;;;3.47;100.00
74075;BME280;62428;51.412;5.432;2023-11-22T02:20:14;102648.19;;;3.45;100.00
74075;BME280;62428;51.412;5.432;2023-11-22T02:22:44;102637.78;;;3.44;100.00
74075;BME280;62428;51.412;5.432;2023-11-22T02:25:11;102630.00;;;3.42;100.00
74075;BME280;62428;51.412;5.432;2023-11-22T02:27:36;102641.44;;;3.43;100.00
74075;BME280;62428;51.412;5.432;2023-11-22T02:30:03;102652.91;;;3.43;100.00
74075;BME280;62428;51.412;5.432;2023-11-22T02:32:31;102653.09;;;3.42;100.00
74075;BME280;62428;51.412;5.432;2023-11-22T02:34:56;102664.53;;;3.42;100.00
74075;BME280;62428;51.412;5.432;2023-11-22T02:37:21;102667.19;;;3.42;100.00
74075;BME280;62428;51.412;5.432;2023-11-22T02:42:25;102677.22;;;3.40;100.00
74075;BME280;62428;51.412;5.432;2023-11-22T02:44:51;102678.22;;;3.39;100.00
74075;BME280;62428;51.412;5.432;2023-11-22T02:47:16;102667.59;;;3.39;100.00
74075;BME280;62428;51.412;5.432;2023-11-22T02:49:42;102674.53;;;3.40;100.00
74075;BME280;62428;51.412;5.432;2023-11-22T02:52:07;102674.75;;;3.39;100.00
74075;BME280;62428;51.412;5.432;2023-11-22T02:54:32;102672.09;;;3.39;100.00
74075;BME280;62428;51.412;5.432;2023-11-22T02:56:59;102665.97;;;3.38;100.00
74075;BME280;62428;51.412;5.432;2023-11-22T02:59:25;102662.50;;;3.38;100.00
74075;BME280;62428;51.412;5.432;2023-11-22T03:01:50;102654.72;;;3.36;100.00
74075;BME280;62428;51.412;5.432;2023-11-22T03:04:16;102653.25;;;3.34;100.00
74075;BME280;62428;51.412;5.432;2023-11-22T03:06:41;102648.97;;;3.33;100.00
74075;BME280;62428;51.412;5.432;2023-11-22T03:09:07;102651.81;;;3.31;100.00
74075;BME280;62428;51.412;5.432;2023-11-22T03:11:33;102659.19;;;3.29;100.00
74075;BME280;62428;51.412;5.432;2023-11-22T03:13:58;102656.53;;;3.29;100.00
74075;BME280;62428;51.412;5.432;2023-11-22T03:16:24;102652.84;;;3.30;100.00
74075;BME280;62428;51.412;5.432;2023-11-22T03:18:49;102657.34;;;3.30;100.00
74075;BME280;62428;51.412;5.432;2023-11-22T03:21:16;102666.13;;;3.30;100.00
74075;BME280;62428;51.412;5.432;2023-11-22T03:23:42;102661.84;;;3.29;100.00
74075;BME280;62428;51.412;5.432;2023-11-22T03:26:07;102663.03;;;3.26;100.00
74075;BME280;62428;51.412;5.432;2023-11-22T03:28:34;102659.94;;;3.23;100.00
74075;BME280;62428;51.412;5.432;2023-11-22T03:31:00;102656.69;;;3.21;100.00
74075;BME280;62428;51.412;5.432;2023-11-22T03:33:25;102667.72;;;3.18;100.00
74075;BME280;62428;51.412;5.432;2023-11-22T03:35:51;102679.34;;;3.17;100.00
74075;BME280;62428;51.412;5.432;2023-11-22T03:38:16;102673.41;;;3.15;100.00
74075;BME280;62428;51.412;5.432;2023-11-22T03:40:43;102676.66;;;3.10;100.00
74075;BME280;62428;51.412;5.432;2023-11-22T03:43:08;102674.41;;;3.07;100.00
74075;BME280;62428;51.412;5.432;2023-11-22T03:45:35;102694.00;;;3.06;100.00
74075;BME280;62428;51.412;5.432;2023-11-22T03:48:00;102696.03;;;3.04;100.00
74075;BME280;62428;51.412;5.432;2023-11-22T03:50:26;102702.75;;;3.00;100.00
74075;BME280;62428;51.412;5.432;2023-11-22T03:52:51;102710.91;;;2.98;100.00
74075;BME280;62428;51.412;5.432;2023-11-22T03:55:16;102713.13;;;2.95;100.00
74075;BME280;62428;51.412;5.432;2023-11-22T03:57:42;102725.97;;;2.91;100.00
74075;BME280;62428;51.412;5.432;2023-11-22T04:00:07;102734.13;;;2.89;100.00
74075;BME280;62428;51.412;5.432;2023-11-22T04:02:34;102732.69;;;2.87;100.00
74075;BME280;62428;51.412;5.432;2023-11-22T04:05:00;102738.56;;;2.82;100.00
74075;BME280;62428;51.412;5.432;2023-11-22T04:07:25;102746.09;;;2.79;100.00
74075;BME280;62428;51.412;5.432;2023-11-22T04:09:50;102745.66;;;2.75;100.00
74075;BME280;62428;51.412;5.432;2023-11-22T04:12:16;102758.50;;;2.72;100.00
74075;BME280;62428;51.412;5.432;2023-11-22T04:14:41;102763.38;;;2.68;100.00
74075;BME280;62428;51.412;5.432;2023-11-22T04:17:06;102760.91;;;2.66;100.00
74075;BME280;62428;51.412;5.432;2023-11-22T04:19:32;102764.78;;;2.64;100.00
74075;BME280;62428;51.412;5.432;2023-11-22T04:21:57;102759.66;;;2.62;100.00
74075;BME280;62428;51.412;5.432;2023-11-22T04:24:24;102761.06;;;2.58;100.00
74075;BME280;62428;51.412;5.432;2023-11-22T04:26:49;102767.34;;;2.57;100.00
74075;BME280;62428;51.412;5.432;2023-11-22T04:29:15;102760.44;;;2.56;100.00
74075;BME280;62428;51.412;5.432;2023-11-22T04:31:41;102767.94;;;2.53;100.00
74075;BME280;62428;51.412;5.432;2023-11-22T04:34:06;102765.47;;;2.51;100.00
74075;BME280;62428;51.412;5.432;2023-11-22T04:36:32;102764.84;;;2.49;100.00
74075;BME280;62428;51.412;5.432;2023-11-22T04:38:57;102774.66;;;2.48;100.00
74075;BME280;62428;51.412;5.432;2023-11-22T04:41:22;102775.84;;;2.46;100.00
74075;BME280;62428;51.412;5.432;2023-11-22T04:43:49;102780.50;;;2.44;100.00
74075;BME280;62428;51.412;5.432;2023-11-22T04:46:14;102782.53;;;2.42;100.00
74075;BME280;62428;51.412;5.432;2023-11-22T04:48:39;102767.00;;;2.39;100.00
74075;BME280;62428;51.412;5.432;2023-11-22T04:51:06;102770.22;;;2.34;100.00
74075;BME280;62428;51.412;5.432;2023-11-22T04:53:31;102773.06;;;2.33;100.00
74075;BME280;62428;51.412;5.432;2023-11-22T04:55:57;102773.25;;;2.31;100.00
74075;BME280;62428;51.412;5.432;2023-11-22T04:58:24;102777.09;;;2.28;100.00
74075;BME280;62428;51.412;5.432;2023-11-22T05:00:49;102784.44;;;2.26;100.00
74075;BME280;62428;51.412;5.432;2023-11-22T05:03:15;102792.59;;;2.25;100.00
74075;BME280;62428;51.412;5.432;2023-11-22T05:05:40;102795.41;;;2.23;100.00
74075;BME280;62428;51.412;5.432;2023-11-22T05:08:05;102788.44;;;2.22;100.00
74075;BME280;62428;51.412;5.432;2023-11-22T05:10:31;102790.28;;;2.22;100.00
74075;BME280;62428;51.412;5.432;2023-11-22T05:12:56;102799.06;;;2.22;100.00
74075;BME280;62428;51.412;5.432;2023-11-22T05:15:25;102804.19;;;2.24;100.00
74075;BME280;62428;51.412;5.432;2023-11-22T05:17:50;102812.78;;;2.26;100.00
74075;BME280;62428;51.412;5.432;2023-11-22T05:20:15;102809.31;;;2.25;100.00
74075;BME280;62428;51.412;5.432;2023-11-22T05:22:41;102808.31;;;2.26;100.00
74075;BME280;62428;51.412;5.432;2023-11-22T05:25:06;102801.34;;;2.25;100.00
74075;BME280;62428;51.412;5.432;2023-11-22T05:27:32;102806.09;;;2.30;100.00
74075;BME280;62428;51.412;5.432;2023-11-22T05:29:58;102796.75;;;2.34;100.00
74075;BME280;62428;51.412;5.432;2023-11-22T05:32:23;102803.50;;;2.37;100.00
74075;BME280;62428;51.412;5.432;2023-11-22T05:34:49;102790.88;;;2.39;100.00
74075;BME280;62428;51.412;5.432;2023-11-22T05:37:14;102795.63;;;2.43;100.00
74075;BME280;62428;51.412;5.432;2023-11-22T05:39:39;102791.75;;;2.46;100.00
74075;BME280;62428;51.412;5.432;2023-11-22T05:42:05;102777.88;;;2.44;100.00
74075;BME280;62428;51.412;5.432;2023-11-22T05:44:32;102784.56;;;2.40;100.00
74075;BME280;62428;51.412;5.432;2023-11-22T05:46:57;102778.81;;;2.36;100.00
74075;BME280;62428;51.412;5.432;2023-11-22T05:49:22;102794.47;;;2.31;100.00
74075;BME280;62428;51.412;5.432;2023-11-22T05:51:48;102791.00;;;2.30;100.00
74075;BME280;62428;51.412;5.432;2023-11-22T05:54:13;102794.66;;;2.29;100.00
74075;BME280;62428;51.412;5.432;2023-11-22T05:56:41;102816.50;;;2.31;100.00
74075;BME280;62428;51.412;5.432;2023-11-22T05:59:06;102812.84;;;2.33;100.00
74075;BME280;62428;51.412;5.432;2023-11-22T06:01:32;102830.63;;;2.32;100.00
74075;BME280;62428;51.412;5.432;2023-11-22T06:03:57;102834.06;;;2.33;100.00
74075;BME280;62428;51.412;5.432;2023-11-22T06:06:23;102840.19;;;2.33;100.00
74075;BME280;62428;51.412;5.432;2023-11-22T06:08:48;102847.78;;;2.36;100.00
74075;BME280;62428;51.412;5.432;2023-11-22T06:11:14;102834.53;;;2.36;100.00
74075;BME280;62428;51.412;5.432;2023-11-22T06:13:41;102829.59;;;2.33;100.00
74075;BME280;62428;51.412;5.432;2023-11-22T06:16:07;102819.38;;;2.30;100.00
74075;BME280;62428;51.412;5.432;2023-11-22T06:18:34;102829.75;;;2.31;100.00
74075;BME280;62428;51.412;5.432;2023-11-22T06:21:08;102835.28;;;2.30;100.00
74075;BME280;62428;51.412;5.432;2023-11-22T06:23:34;102836.28;;;2.29;100.00
74075;BME280;62428;51.412;5.432;2023-11-22T06:25:59;102839.94;;;2.28;100.00
74075;BME280;62428;51.412;5.432;2023-11-22T06:28:25;102847.44;;;2.24;100.00
74075;BME280;62428;51.412;5.432;2023-11-22T06:30:50;102840.69;;;2.22;100.00
74075;BME280;62428;51.412;5.432;2023-11-22T06:33:16;102847.00;;;2.21;100.00
74075;BME280;62428;51.412;5.432;2023-11-22T06:35:41;102856.78;;;2.20;100.00
74075;BME280;62428;51.412;5.432;2023-11-22T06:38:08;102856.78;;;2.20;100.00
74075;BME280;62428;51.412;5.432;2023-11-22T06:40:33;102851.47;;;2.20;100.00
74075;BME280;62428;51.412;5.432;2023-11-22T06:42:58;102846.34;;;2.19;100.00
74075;BME280;62428;51.412;5.432;2023-11-22T06:45:24;102848.19;;;2.18;100.00
74075;BME280;62428;51.412;5.432;2023-11-22T06:47:49;102858.00;;;2.18;100.00
74075;BME280;62428;51.412;5.432;2023-11-22T06:50:15;102865.78;;;2.19;100.00
74075;BME280;62428;51.412;5.432;2023-11-22T06:52:41;102875.34;;;2.20;100.00
74075;BME280;62428;51.412;5.432;2023-11-22T06:55:08;102885.97;;;2.20;100.00
74075;BME280;62428;51.412;5.432;2023-11-22T06:57:34;102885.59;;;2.23;100.00
74075;BME280;62428;51.412;5.432;2023-11-22T07:00:00;102866.22;;;2.23;100.00
74075;BME280;62428;51.412;5.432;2023-11-22T07:02:26;102860.06;;;2.22;100.00
74075;BME280;62428;51.412;5.432;2023-11-22T07:04:52;102842.13;;;2.24;100.00
74075;BME280;62428;51.412;5.432;2023-11-22T07:07:18;102840.31;;;2.25;100.00
74075;BME280;62428;51.412;5.432;2023-11-22T07:09:45;102843.59;;;2.27;100.00
74075;BME280;62428;51.412;5.432;2023-11-22T07:12:11;102833.81;;;2.27;100.00
74075;BME280;62428;51.412;5.432;2023-11-22T07:14:36;102835.47;;;2.28;100.00
74075;BME280;62428;51.412;5.432;2023-11-22T07:17:03;102828.16;;;2.30;100.00
74075;BME280;62428;51.412;5.432;2023-11-22T07:19:28;102831.44;;;2.33;100.00
74075;BME280;62428;51.412;5.432;2023-11-22T07:21:54;102833.72;;;2.36;100.00
74075;BME280;62428;51.412;5.432;2023-11-22T07:24:19;102831.69;;;2.38;100.00
74075;BME280;62428;51.412;5.432;2023-11-22T07:26:45;102837.00;;;2.38;100.00
74075;BME280;62428;51.412;5.432;2023-11-22T07:29:10;102840.66;;;2.37;100.00
74075;BME280;62428;51.412;5.432;2023-11-22T07:31:37;102852.06;;;2.37;100.00
74075;BME280;62428;51.412;5.432;2023-11-22T07:34:03;102847.44;;;2.39;100.00
74075;BME280;62428;51.412;5.432;2023-11-22T07:36:28;102854.19;;;2.42;100.00
74075;BME280;62428;51.412;5.432;2023-11-22T07:38:54;102854.53;;;2.39;100.00
74075;BME280;62428;51.412;5.432;2023-11-22T07:41:19;102843.75;;;2.40;100.00
74075;BME280;62428;51.412;5.432;2023-11-22T07:43:46;102861.59;;;2.46;100.00
74075;BME280;62428;51.412;5.432;2023-11-22T07:46:11;102856.69;;;2.50;100.00
74075;BME280;62428;51.412;5.432;2023-11-22T07:48:40;102862.66;;;2.52;100.00
74075;BME280;62428;51.412;5.432;2023-11-22T07:51:07;102862.28;;;2.55;100.00
74075;BME280;62428;51.412;5.432;2023-11-22T07:53:33;102861.72;;;2.60;100.00
74075;BME280;62428;51.412;5.432;2023-11-22T07:56:01;102862.97;;;2.64;100.00
74075;BME280;62428;51.412;5.432;2023-11-22T07:58:30;102863.59;;;2.66;100.00
74075;BME280;62428;51.412;5.432;2023-11-22T08:00:56;102861.97;;;2.65;100.00
74075;BME280;62428;51.412;5.432;2023-11-22T08:03:22;102868.72;;;2.67;100.00
74075;BME280;62428;51.412;5.432;2023-11-22T08:05:53;102878.97;;;2.71;100.00
74075;BME280;62428;51.412;5.432;2023-11-22T08:08:22;102892.69;;;2.74;100.00
74075;BME280;62428;51.412;5.432;2023-11-22T08:10:48;102895.16;;;2.76;100.00
74075;BME280;62428;51.412;5.432;2023-11-22T08:13:14;102902.75;;;2.79;100.00
74075;BME280;62428;51.412;5.432;2023-11-22T08:15:41;102910.69;;;2.79;100.00
74075;BME280;62428;51.412;5.432;2023-11-22T08:18:06;102911.72;;;2.78;100.00
74075;BME280;62428;51.412;5.432;2023-11-22T08:20:31;102913.34;;;2.79;100.00
74075;BME280;62428;51.412;5.432;2023-11-22T08:22:57;102921.94;;;2.81;100.00
74075;BME280;62428;51.412;5.432;2023-11-22T08:25:22;102927.06;;;2.82;100.00
74075;BME280;62428;51.412;5.432;2023-11-22T08:27:47;102935.50;;;2.86;100.00
74075;BME280;62428;51.412;5.432;2023-11-22T08:30:13;102931.84;;;2.87;100.00
74075;BME280;62428;51.412;5.432;2023-11-22T08:32:44;102927.16;;;2.89;100.00
74075;BME280;62428;51.412;5.432;2023-11-22T08:35:12;102927.59;;;2.93;100.00
74075;BME280;62428;51.412;5.432;2023-11-22T08:37:40;102922.91;;;2.95;100.00
74075;BME280;62428;51.412;5.432;2023-11-22T08:40:09;102920.72;;;2.98;100.00
74075;BME280;62428;51.412;5.432;2023-11-22T08:42:46;102909.72;;;3.01;100.00
74075;BME280;62428;51.412;5.432;2023-11-22T08:45:11;102902.38;;;3.03;100.00
74075;BME280;62428;51.412;5.432;2023-11-22T08:47:38;102905.03;;;3.03;100.00
74075;BME280;62428;51.412;5.432;2023-11-22T08:50:05;102910.97;;;3.05;100.00
74075;BME280;62428;51.412;5.432;2023-11-22T08:52:31;102919.75;;;3.06;100.00
74075;BME280;62428;51.412;5.432;2023-11-22T08:54:56;102931.84;;;3.08;100.00
74075;BME280;62428;51.412;5.432;2023-11-22T08:57:22;102931.63;;;3.10;100.00
74075;BME280;62428;51.412;5.432;2023-11-22T08:59:47;102934.09;;;3.12;100.00
74075;BME280;62428;51.412;5.432;2023-11-22T09:02:13;102946.38;;;3.13;100.00
74075;BME280;62428;51.412;5.432;2023-11-22T09:04:40;102944.38;;;3.15;100.00
74075;BME280;62428;51.412;5.432;2023-11-22T09:07:07;102941.53;;;3.16;100.00
74075;BME280;62428;51.412;5.432;2023-11-22T09:09:32;102934.00;;;3.20;100.00
74075;BME280;62428;51.412;5.432;2023-11-22T09:12:00;102937.53;;;3.27;100.00
74075;BME280;62428;51.412;5.432;2023-11-22T09:14:25;102938.16;;;3.29;100.00
74075;BME280;62428;51.412;5.432;2023-11-22T09:16:51;102934.28;;;3.32;100.00
74075;BME280;62428;51.412;5.432;2023-11-22T09:19:21;102942.88;;;3.34;100.00
74075;BME280;62428;51.412;5.432;2023-11-22T09:21:47;102939.22;;;3.35;100.00
74075;BME280;62428;51.412;5.432;2023-11-22T09:24:13;102936.38;;;3.36;100.00
74075;BME280;62428;51.412;5.432;2023-11-22T09:26:38;102940.84;;;3.36;100.00
74075;BME280;62428;51.412;5.432;2023-11-22T09:29:04;102951.28;;;3.37;100.00
74075;BME280;62428;51.412;5.432;2023-11-22T09:31:30;102946.41;;;3.41;100.00
74075;BME280;62428;51.412;5.432;2023-11-22T09:33:55;102950.34;;;3.45;100.00
74075;BME280;62428;51.412;5.432;2023-11-22T09:36:22;102947.28;;;3.48;100.00
74075;BME280;62428;51.412;5.432;2023-11-22T09:38:48;102942.41;;;3.52;100.00
74075;BME280;62428;51.412;5.432;2023-11-22T09:41:13;102944.69;;;3.55;100.00
74075;BME280;62428;51.412;5.432;2023-11-22T09:43:41;102943.91;;;3.61;100.00
74075;BME280;62428;51.412;5.432;2023-11-22T09:46:08;102949.66;;;3.64;100.00
74075;BME280;62428;51.412;5.432;2023-11-22T09:48:36;102953.81;;;3.67;100.00
74075;BME280;62428;51.412;5.432;2023-11-22T09:51:05;102957.09;;;3.69;100.00
74075;BME280;62428;51.412;5.432;2023-11-22T09:53:36;102959.34;;;3.72;100.00
74075;BME280;62428;51.412;5.432;2023-11-22T09:56:08;102957.94;;;3.76;100.00
74075;BME280;62428;51.412;5.432;2023-11-22T09:58:35;102953.06;;;3.80;100.00
74075;BME280;62428;51.412;5.432;2023-11-22T10:01:03;102952.84;;;3.81;100.00
74075;BME280;62428;51.412;5.432;2023-11-22T10:03:29;102947.34;;;3.83;100.00
74075;BME280;62428;51.412;5.432;2023-11-22T10:05:58;102942.03;;;3.83;100.00
74075;BME280;62428;51.412;5.432;2023-11-22T10:08:25;102939.16;;;3.84;100.00
74075;BME280;62428;51.412;5.432;2023-11-22T10:10:53;102936.13;;;3.88;100.00
74075;BME280;62428;51.412;5.432;2023-11-22T10:13:19;102935.09;;;3.89;100.00
74075;BME280;62428;51.412;5.432;2023-11-22T10:15:46;102935.75;;;3.91;100.00
74075;BME280;62428;51.412;5.432;2023-11-22T10:18:13;102940.28;;;3.97;100.00
74075;BME280;62428;51.412;5.432;2023-11-22T10:20:40;102944.56;;;3.98;100.00
74075;BME280;62428;51.412;5.432;2023-11-22T10:23:13;102941.75;;;4.06;100.00
74075;BME280;62428;51.412;5.432;2023-11-22T10:25:45;102939.16;;;4.13;100.00
74075;BME280;62428;51.412;5.432;2023-11-22T10:28:13;102949.38;;;4.16;100.00
74075;BME280;62428;51.412;5.432;2023-11-22T10:30:38;102950.00;;;4.18;100.00
74075;BME280;62428;51.412;5.432;2023-11-22T10:33:06;102950.66;;;4.20;100.00
74075;BME280;62428;51.412;5.432;2023-11-22T10:35:31;102939.59;;;4.23;100.00
74075;BME280;62428;51.412;5.432;2023-11-22T10:37:59;102942.69;;;4.27;100.00
74075;BME280;62428;51.412;5.432;2023-11-22T10:40:28;102938.59;;;4.31;100.00
74075;BME280;62428;51.412;5.432;2023-11-22T10:42:56;102934.97;;;4.38;100.00
74075;BME280;62428;51.412;5.432;2023-11-22T10:45:21;102935.59;;;4.47;100.00
74075;BME280;62428;51.412;5.432;2023-11-22T10:47:49;102926.22;;;4.51;100.00
74075;BME280;62428;51.412;5.432;2023-11-22T10:50:14;102929.47;;;4.53;100.00
74075;BME280;62428;51.412;5.432;2023-11-22T10:52:41;102921.50;;;4.53;100.00
74075;BME280;62428;51.412;5.432;2023-11-22T10:55:11;102929.69;;;4.52;100.00
74075;BME280;62428;51.412;5.432;2023-11-22T10:57:45;102917.38;;;4.51;100.00
74075;BME280;62428;51.412;5.432;2023-11-22T11:00:15;102903.88;;;4.52;100.00
74075;BME280;62428;51.412;5.432;2023-11-22T11:02:42;102898.97;;;4.56;100.00
74075;BME280;62428;51.412;5.432;2023-11-22T11:05:31;102903.69;;;4.60;100.00
74075;BME280;62428;51.412;5.432;2023-11-22T11:08:08;102899.00;;;4.62;100.00
74075;BME280;62428;51.412;5.432;2023-11-22T11:10:40;102893.66;;;4.62;100.00
74075;BME280;62428;51.412;5.432;2023-11-22T11:13:11;102873.81;;;4.58;100.00
74075;BME280;62428;51.412;5.432;2023-11-22T11:15:38;102876.25;;;4.60;100.00
74075;BME280;62428;51.412;5.432;2023-11-22T11:18:05;102874.22;;;4.62;100.00
74075;BME280;62428;51.412;5.432;2023-11-22T11:20:58;102878.72;;;4.68;100.00
74075;BME280;62428;51.412;5.432;2023-11-22T11:23:27;102878.13;;;4.73;100.00
74075;BME280;62428;51.412;5.432;2023-11-22T11:25:56;102879.38;;;4.77;100.00
74075;BME280;62428;51.412;5.432;2023-11-22T11:28:26;102883.25;;;4.81;100.00
74075;BME280;62428;51.412;5.432;2023-11-22T11:30:53;102878.53;;;4.83;100.00
74075;BME280;62428;51.412;5.432;2023-11-22T11:33:27;102891.25;;;4.81;100.00
74075;BME280;62428;51.412;5.432;2023-11-22T11:35:52;102887.78;;;4.80;100.00
74075;BME280;62428;51.412;5.432;2023-11-22T11:38:27;102884.69;;;4.84;100.00
74075;BME280;62428;51.412;5.432;2023-11-22T11:40:55;102876.28;;;4.87;100.00
74075;BME280;62428;51.412;5.432;2023-11-22T11:43:22;102867.91;;;4.90;100.00
74075;BME280;62428;51.412;5.432;2023-11-22T11:46:06;102861.94;;;4.94;100.00
74075;BME280;62428;51.412;5.432;2023-11-22T11:48:33;102856.41;;;4.96;100.00
74075;BME280;62428;51.412;5.432;2023-11-22T11:50:58;102855.22;;;4.98;100.00
74075;BME280;62428;51.412;5.432;2023-11-22T11:53:23;102833.47;;;5.01;100.00
74075;BME280;62428;51.412;5.432;2023-11-22T11:55:49;102822.22;;;5.06;100.00
74075;BME280;62428;51.412;5.432;2023-11-22T11:58:17;102831.03;;;5.13;100.00
74075;BME280;62428;51.412;5.432;2023-11-22T12:00:42;102821.19;;;5.20;100.00
74075;BME280;62428;51.412;5.432;2023-11-22T12:03:07;102806.81;;;5.22;100.00
74075;BME280;62428;51.412;5.432;2023-11-22T12:05:36;102794.53;;;5.20;100.00
74075;BME280;62428;51.412;5.432;2023-11-22T12:08:02;102791.44;;;5.17;100.00
74075;BME280;62428;51.412;5.432;2023-11-22T12:10:28;102797.78;;;5.16;100.00
74075;BME280;62428;51.412;5.432;2023-11-22T12:12:53;102794.53;;;5.14;100.00
74075;BME280;62428;51.412;5.432;2023-11-22T12:15:19;102802.13;;;5.17;100.00
74075;BME280;62428;51.412;5.432;2023-11-22T12:17:44;102806.84;;;5.15;100.00
74075;BME280;62428;51.412;5.432;2023-11-22T12:20:11;102792.25;;;5.11;100.00
74075;BME280;62428;51.412;5.432;2023-11-22T12:22:40;102791.66;;;5.09;100.00
74075;BME280;62428;51.412;5.432;2023-11-22T12:25:06;102780.38;;;5.07;100.00
74075;BME280;62428;51.412;5.432;2023-11-22T12:27:32;102782.44;;;5.05;100.00
74075;BME280;62428;51.412;5.432;2023-11-22T12:29:57;102781.84;;;5.03;100.00
74075;BME280;62428;51.412;5.432;2023-11-22T12:32:26;102785.72;;;5.00;100.00
74075;BME280;62428;51.412;5.432;2023-11-22T12:34:51;102780.81;;;4.97;100.00
74075;BME280;62428;51.412;5.432;2023-11-22T12:37:21;102789.00;;;4.95;100.00
74075;BME280;62428;51.412;5.432;2023-11-22T12:39:48;102791.06;;;4.93;100.00
74075;BME280;62428;51.412;5.432;2023-11-22T12:42:13;102805.19;;;4.94;100.00
74075;BME280;62428;51.412;5.432;2023-11-22T12:44:49;102812.19;;;4.95;100.00
74075;BME280;62428;51.412;5.432;2023-11-22T12:47:14;102807.25;;;4.92;100.00
74075;BME280;62428;51.412;5.432;2023-11-22T12:49:47;102807.44;;;4.90;100.00